sensor_id;sensor_type;location;lat;lon;timestamp;pressure;altitude;pressure_sealevel;temperature;humidity
66560;BME280;53413;49.878;8.142;2023-03-21T00:00:24;100216.81;;;8.67;100.00
66560;BME280;53413;49.878;8.142;2023-03-21T00:02:50;100218.59;;;8.65;100.00
66560;BME280;53413;49.878;8.142;2023-03-21T00:05:15;100215.16;;;8.62;100.00
66560;BME280;53413;49.878;8.142;2023-03-21T00:07:41;100203.94;;;8.59;100.00
66560;BME280;53413;49.878;8.142;2023-03-21T00:10:06;100208.31;;;8.58;100.00
66560;BME280;53413;49.878;8.142;2023-03-21T00:12:32;100208.41;;;8.55;100.00
66560;BME280;53413;49.878;8.142;2023-03-21T00:15:06;100200.69;;;8.51;100.00
66560;BME280;53413;49.878;8.142;2023-03-21T00:17:33;100200.91;;;8.41;100.00
66560;BME280;53413;49.878;8.142;2023-03-21T00:19:59;100203.72;;;8.34;100.00
66560;BME280;53413;49.878;8.142;2023-03-21T00:22:25;100204.75;;;8.26;100.00
66560;BME280;53413;49.878;8.142;2023-03-21T00:24:52;100201.28;;;8.26;100.00
66560;BME280;53413;49.878;8.142;2023-03-21T00:27:17;100196.06;;;8.26;100.00
66560;BME280;53413;49.878;8.142;2023-03-21T00:29:46;100195.19;;;8.25;100.00
66560;BME280;53413;49.878;8.142;2023-03-21T00:32:14;100187.41;;;8.24;100.00
66560;BME280;53413;49.878;8.142;2023-03-21T00:34:40;100188.25;;;8.24;100.00
66560;BME280;53413;49.878;8.142;2023-03-21T00:37:07;100187.41;;;8.24;100.00
66560;BME280;53413;49.878;8.142;2023-03-21T00:39:33;100187.38;;;8.25;100.00
66560;BME280;53413;49.878;8.142;2023-03-21T00:41:59;100183.88;;;8.26;100.00
66560;BME280;53413;49.878;8.142;2023-03-21T00:44:24;100188.97;;;8.31;100.00
66560;BME280;53413;49.878;8.142;2023-03-21T00:46:50;100182.81;;;8.34;100.00
66560;BME280;53413;49.878;8.142;2023-03-21T00:49:15;100177.50;;;8.37;100.00
66560;BME280;53413;49.878;8.142;2023-03-21T00:51:41;100183.53;;;8.40;100.00
66560;BME280;53413;49.878;8.142;2023-03-21T00:54:10;100167.81;;;8.42;100.00
66560;BME280;53413;49.878;8.142;2023-03-21T00:56:35;100178.19;;;8.43;100.00
66560;BME280;53413;49.878;8.142;2023-03-21T00:59:01;100171.16;;;8.47;100.00
66560;BME280;53413;49.878;8.142;2023-03-21T01:01:26;100179.88;;;8.46;100.00
66560;BME280;53413;49.878;8.142;2023-03-21T01:03:57;100167.66;;;8.48;100.00
66560;BME280;53413;49.878;8.142;2023-03-21T01:06:29;100173.78;;;8.45;100.00
66560;BME280;53413;49.878;8.142;2023-03-21T01:08:54;100162.53;;;8.43;100.00
66560;BME280;53413;49.878;8.142;2023-03-21T01:11:25;100166.91;;;8.43;100.00
66560;BME280;53413;49.878;8.142;2023-03-21T01:13:51;100161.63;;;8.44;100.00
66560;BME280;53413;49.878;8.142;2023-03-21T01:16:17;100163.34;;;8.45;100.00
66560;BME280;53413;49.878;8.142;2023-03-21T01:18:42;100158.09;;;8.47;100.00
66560;BME280;53413;49.878;8.142;2023-03-21T01:21:11;100154.59;;;8.48;100.00
66560;BME280;53413;49.878;8.142;2023-03-21T01:23:38;100158.97;;;8.47;100.00
66560;BME280;53413;49.878;8.142;2023-03-21T01:26:04;100155.41;;;8.50;100.00
66560;BME280;53413;49.878;8.142;2023-03-21T01:28:29;100156.31;;;8.49;100.00
66560;BME280;53413;49.878;8.142;2023-03-21T01:30:55;100148.44;;;8.51;100.00
66560;BME280;53413;49.878;8.142;2023-03-21T01:33:21;100149.41;;;8.46;100.00
66560;BME280;53413;49.878;8.142;2023-03-21T01:35:47;100144.06;;;8.51;100.00
66560;BME280;53413;49.878;8.142;2023-03-21T01:38:13;100151.00;;;8.52;100.00
66560;BME280;53413;49.878;8.142;2023-03-21T01:40:39;100151.78;;;8.56;100.00
66560;BME280;53413;49.878;8.142;2023-03-21T01:43:25;100156.91;;;8.59;100.00
66560;BME280;53413;49.878;8.142;2023-03-21T01:46:16;100146.59;;;8.54;100.00
66560;BME280;53413;49.878;8.142;2023-03-21T01:48:48;100145.78;;;8.52;100.00
66560;BME280;53413;49.878;8.142;2023-03-21T01:51:15;100142.28;;;8.53;100.00
66560;BME280;53413;49.878;8.142;2023-03-21T01:53:41;100137.00;;;8.55;100.00
66560;BME280;53413;49.878;8.142;2023-03-21T01:56:10;100139.66;;;8.53;100.00
66560;BME280;53413;49.878;8.142;2023-03-21T01:58:38;100133.63;;;8.51;100.00
66560;BME280;53413;49.878;8.142;2023-03-21T02:01:06;100133.69;;;8.48;100.00
66560;BME280;53413;49.878;8.142;2023-03-21T02:03:32;100139.03;;;8.43;100.00
66560;BME280;53413;49.878;8.142;2023-03-21T02:06:08;100133.09;;;8.38;100.00
66560;BME280;53413;49.878;8.142;2023-03-21T02:08:35;100126.28;;;8.32;100.00
66560;BME280;53413;49.878;8.142;2023-03-21T02:11:01;100126.41;;;8.28;100.00
66560;BME280;53413;49.878;8.142;2023-03-21T02:13:27;100123.00;;;8.24;100.00
66560;BME280;53413;49.878;8.142;2023-03-21T02:16:17;100123.13;;;8.20;100.00
66560;BME280;53413;49.878;8.142;2023-03-21T02:27:50;100106.06;;;8.06;100.00
66560;BME280;53413;49.878;8.142;2023-03-21T02:30:34;100106.94;;;8.07;100.00
66560;BME280;53413;49.878;8.142;2023-03-21T02:41:15;100097.22;;;8.12;100.00
66560;BME280;53413;49.878;8.142;2023-03-21T02:46:25;100089.38;;;8.12;100.00
66560;BME280;53413;49.878;8.142;2023-03-21T02:51:24;100092.94;;;8.11;100.00
66560;BME280;53413;49.878;8.142;2023-03-21T02:53:57;100089.31;;;8.15;100.00
66560;BME280;53413;49.878;8.142;2023-03-21T02:56:23;100089.16;;;8.21;100.00
66560;BME280;53413;49.878;8.142;2023-03-21T02:58:51;100096.81;;;8.27;100.00
66560;BME280;53413;49.878;8.142;2023-03-21T03:01:16;100087.97;;;8.33;100.00
66560;BME280;53413;49.878;8.142;2023-03-21T03:03:42;100085.22;;;8.38;100.00
66560;BME280;53413;49.878;8.142;2023-03-21T03:06:26;100083.34;;;8.43;100.00
66560;BME280;53413;49.878;8.142;2023-03-21T03:11:35;100070.09;;;8.51;100.00
66560;BME280;53413;49.878;8.142;2023-03-21T03:19:28;100075.19;;;8.55;100.00
66560;BME280;53413;49.878;8.142;2023-03-21T03:22:01;100069.09;;;8.55;100.00
66560;BME280;53413;49.878;8.142;2023-03-21T03:27:25;100069.06;;;8.56;100.00
66560;BME280;53413;49.878;8.142;2023-03-21T03:29:52;100068.19;;;8.56;100.00
66560;BME280;53413;49.878;8.142;2023-03-21T03:32:27;100064.69;;;8.57;100.00
66560;BME280;53413;49.878;8.142;2023-03-21T03:34:54;100073.34;;;8.59;100.00
66560;BME280;53413;49.878;8.142;2023-03-21T03:37:24;100068.31;;;8.53;100.00
66560;BME280;53413;49.878;8.142;2023-03-21T03:42:51;100065.81;;;8.46;100.00
66560;BME280;53413;49.878;8.142;2023-03-21T03:45:19;100066.63;;;8.50;100.00
66560;BME280;53413;49.878;8.142;2023-03-21T03:52:53;100070.59;;;8.63;100.00
66560;BME280;53413;49.878;8.142;2023-03-21T03:55:21;100074.09;;;8.62;100.00
66560;BME280;53413;49.878;8.142;2023-03-21T03:57:48;100070.50;;;8.67;100.00
66560;BME280;53413;49.878;8.142;2023-03-21T04:00:15;100067.81;;;8.70;100.00
66560;BME280;53413;49.878;8.142;2023-03-21T04:02:41;100072.03;;;8.74;100.00
66560;BME280;53413;49.878;8.142;2023-03-21T04:05:07;100066.78;;;8.74;100.00
66560;BME280;53413;49.878;8.142;2023-03-21T04:07:33;100062.44;;;8.74;100.00
66560;BME280;53413;49.878;8.142;2023-03-21T04:09:58;100071.94;;;8.77;100.00
66560;BME280;53413;49.878;8.142;2023-03-21T04:12:24;100072.69;;;8.81;100.00
66560;BME280;53413;49.878;8.142;2023-03-21T04:14:49;100073.50;;;8.83;100.00
66560;BME280;53413;49.878;8.142;2023-03-21T04:17:16;100077.00;;;8.83;100.00
66560;BME280;53413;49.878;8.142;2023-03-21T04:19:41;100081.28;;;8.84;100.00
66560;BME280;53413;49.878;8.142;2023-03-21T04:22:07;100076.88;;;8.86;100.00
66560;BME280;53413;49.878;8.142;2023-03-21T04:24:32;100077.75;;;8.87;100.00
66560;BME280;53413;49.878;8.142;2023-03-21T04:26:59;100077.63;;;8.91;100.00
66560;BME280;53413;49.878;8.142;2023-03-21T04:29:24;100079.28;;;8.94;100.00
66560;BME280;53413;49.878;8.142;2023-03-21T04:31:53;100075.81;;;8.93;100.00
66560;BME280;53413;49.878;8.142;2023-03-21T04:34:18;100075.69;;;8.97;100.00
66560;BME280;53413;49.878;8.142;2023-03-21T04:36:48;100073.91;;;8.99;100.00
66560;BME280;53413;49.878;8.142;2023-03-21T04:39:15;100069.56;;;8.98;100.00
66560;BME280;53413;49.878;8.142;2023-03-21T04:41:43;100074.78;;;8.99;100.00
66560;BME280;53413;49.878;8.142;2023-03-21T04:44:09;100071.19;;;9.02;100.00
66560;BME280;53413;49.878;8.142;2023-03-21T04:46:36;100065.97;;;9.02;100.00
66560;BME280;53413;49.878;8.142;2023-03-21T04:49:01;100073.88;;;9.00;100.00
66560;BME280;53413;49.878;8.142;2023-03-21T04:51:27;100067.78;;;9.00;100.00
66560;BME280;53413;49.878;8.142;2023-03-21T04:53:52;100057.28;;;9.01;100.00
66560;BME280;53413;49.878;8.142;2023-03-21T04:56:25;100059.84;;;9.03;100.00
66560;BME280;53413;49.878;8.142;2023-03-21T04:59:01;100057.22;;;9.03;100.00
66560;BME280;53413;49.878;8.142;2023-03-21T05:01:27;100053.88;;;8.98;100.00
66560;BME280;53413;49.878;8.142;2023-03-21T05:04:01;100060.00;;;8.97;100.00
66560;BME280;53413;49.878;8.142;2023-03-21T05:06:27;100060.00;;;8.97;100.00
66560;BME280;53413;49.878;8.142;2023-03-21T05:08:56;100069.69;;;8.95;100.00
66560;BME280;53413;49.878;8.142;2023-03-21T05:11:29;100063.88;;;8.85;100.00
66560;BME280;53413;49.878;8.142;2023-03-21T05:13:55;100059.69;;;8.79;100.00
66560;BME280;53413;49.878;8.142;2023-03-21T05:16:20;100054.75;;;8.70;100.00
66560;BME280;53413;49.878;8.142;2023-03-21T05:18:49;100049.75;;;8.62;100.00
66560;BME280;53413;49.878;8.142;2023-03-21T05:21:15;100048.25;;;8.53;100.00
66560;BME280;53413;49.878;8.142;2023-03-21T05:23:42;100052.66;;;8.51;100.00
66560;BME280;53413;49.878;8.142;2023-03-21T05:26:08;100041.31;;;8.52;100.00
66560;BME280;53413;49.878;8.142;2023-03-21T05:28:34;100042.06;;;8.57;100.00
66560;BME280;53413;49.878;8.142;2023-03-21T05:31:04;100043.63;;;8.63;100.00
66560;BME280;53413;49.878;8.142;2023-03-21T05:33:31;100041.63;;;8.71;100.00
66560;BME280;53413;49.878;8.142;2023-03-21T05:35:59;100048.34;;;8.80;100.00
66560;BME280;53413;49.878;8.142;2023-03-21T05:38:27;100037.59;;;8.89;100.00
66560;BME280;53413;49.878;8.142;2023-03-21T05:40:53;100042.59;;;8.97;100.00
66560;BME280;53413;49.878;8.142;2023-03-21T05:43:18;100042.28;;;9.06;100.00
66560;BME280;53413;49.878;8.142;2023-03-21T05:45:44;100037.66;;;9.16;100.00
66560;BME280;53413;49.878;8.142;2023-03-21T05:48:09;100046.81;;;9.30;100.00
66560;BME280;53413;49.878;8.142;2023-03-21T05:50:35;100043.78;;;9.42;100.00
66560;BME280;53413;49.878;8.142;2023-03-21T05:53:00;100040.78;;;9.54;100.00
66560;BME280;53413;49.878;8.142;2023-03-21T05:55:25;100049.13;;;9.66;100.00
66560;BME280;53413;49.878;8.142;2023-03-21T05:57:51;100049.03;;;9.93;100.00
66560;BME280;53413;49.878;8.142;2023-03-21T06:00:17;100046.53;;;10.15;100.00
66560;BME280;53413;49.878;8.142;2023-03-21T06:02:43;100055.75;;;10.25;100.00
66560;BME280;53413;49.878;8.142;2023-03-21T06:05:09;100049.63;;;10.26;100.00
66560;BME280;53413;49.878;8.142;2023-03-21T06:07:34;100052.47;;;10.20;100.00
66560;BME280;53413;49.878;8.142;2023-03-21T06:10:02;100042.72;;;10.24;100.00
66560;BME280;53413;49.878;8.142;2023-03-21T06:12:27;100040.75;;;10.30;100.00
66560;BME280;53413;49.878;8.142;2023-03-21T06:14:52;100045.59;;;10.41;100.00
66560;BME280;53413;49.878;8.142;2023-03-21T06:17:18;100049.47;;;10.55;100.00
66560;BME280;53413;49.878;8.142;2023-03-21T06:19:43;100038.78;;;10.61;100.00
66560;BME280;53413;49.878;8.142;2023-03-21T06:22:08;100034.88;;;10.71;100.00
66560;BME280;53413;49.878;8.142;2023-03-21T06:24:34;100045.81;;;10.83;100.00
66560;BME280;53413;49.878;8.142;2023-03-21T06:26:59;100036.56;;;10.96;100.00
66560;BME280;53413;49.878;8.142;2023-03-21T06:29:24;100043.69;;;11.15;100.00
66560;BME280;53413;49.878;8.142;2023-03-21T06:31:50;100046.50;;;11.32;100.00
66560;BME280;53413;49.878;8.142;2023-03-21T06:34:15;100060.53;;;11.52;100.00
66560;BME280;53413;49.878;8.142;2023-03-21T06:36:41;100050.22;;;11.69;100.00
66560;BME280;53413;49.878;8.142;2023-03-21T06:39:09;100053.94;;;11.84;100.00
66560;BME280;53413;49.878;8.142;2023-03-21T06:41:34;100053.38;;;11.98;100.00
66560;BME280;53413;49.878;8.142;2023-03-21T06:44:00;100055.03;;;12.01;100.00
66560;BME280;53413;49.878;8.142;2023-03-21T06:46:26;100050.00;;;12.15;100.00
66560;BME280;53413;49.878;8.142;2023-03-21T06:48:51;100057.91;;;12.35;100.00
66560;BME280;53413;49.878;8.142;2023-03-21T06:51:16;100055.75;;;12.44;100.00
66560;BME280;53413;49.878;8.142;2023-03-21T06:53:42;100055.59;;;12.47;100.00
66560;BME280;53413;49.878;8.142;2023-03-21T06:56:09;100061.78;;;12.46;100.00
66560;BME280;53413;49.878;8.142;2023-03-21T06:58:35;100060.91;;;12.46;100.00
66560;BME280;53413;49.878;8.142;2023-03-21T07:01:01;100065.41;;;12.44;100.00
66560;BME280;53413;49.878;8.142;2023-03-21T07:03:27;100062.91;;;12.41;100.00
66560;BME280;53413;49.878;8.142;2023-03-21T07:05:53;100060.41;;;12.38;100.00
66560;BME280;53413;49.878;8.142;2023-03-21T07:08:19;100062.13;;;12.39;100.00
66560;BME280;53413;49.878;8.142;2023-03-21T07:10:44;100062.91;;;12.41;100.00
66560;BME280;53413;49.878;8.142;2023-03-21T07:13:11;100068.25;;;12.58;100.00
66560;BME280;53413;49.878;8.142;2023-03-21T07:15:36;100063.44;;;12.87;100.00
66560;BME280;53413;49.878;8.142;2023-03-21T07:18:06;100066.94;;;13.24;100.00
66560;BME280;53413;49.878;8.142;2023-03-21T07:20:33;100064.28;;;13.96;100.00
66560;BME280;53413;49.878;8.142;2023-03-21T07:22:58;100058.69;;;14.86;97.97
66560;BME280;53413;49.878;8.142;2023-03-21T07:25:25;100054.16;;;15.36;91.81
66560;BME280;53413;49.878;8.142;2023-03-21T07:27:50;100058.59;;;16.11;87.74
66560;BME280;53413;49.878;8.142;2023-03-21T07:30:16;100064.13;;;16.78;83.18
66560;BME280;53413;49.878;8.142;2023-03-21T07:32:42;100059.41;;;17.26;78.79
66560;BME280;53413;49.878;8.142;2023-03-21T07:35:11;100052.03;;;18.23;73.62
66560;BME280;53413;49.878;8.142;2023-03-21T07:37:38;100057.69;;;18.81;70.35
66560;BME280;53413;49.878;8.142;2023-03-21T07:40:03;100051.31;;;19.92;63.10
66560;BME280;53413;49.878;8.142;2023-03-21T07:42:38;100050.34;;;19.93;60.80
66560;BME280;53413;49.878;8.142;2023-03-21T07:45:04;100052.34;;;20.37;58.70
66560;BME280;53413;49.878;8.142;2023-03-21T07:47:30;100060.69;;;19.74;58.75
66560;BME280;53413;49.878;8.142;2023-03-21T07:49:59;100057.13;;;18.89;59.69
66560;BME280;53413;49.878;8.142;2023-03-21T07:52:28;100053.94;;;17.95;60.61
66560;BME280;53413;49.878;8.142;2023-03-21T07:54:53;100067.41;;;17.11;62.08
66560;BME280;53413;49.878;8.142;2023-03-21T07:57:18;100064.44;;;16.59;64.84
66560;BME280;53413;49.878;8.142;2023-03-21T07:59:44;100059.34;;;16.56;65.22
66560;BME280;53413;49.878;8.142;2023-03-21T08:02:14;100068.03;;;16.58;65.75
66560;BME280;53413;49.878;8.142;2023-03-21T08:04:40;100067.28;;;16.42;66.29
66560;BME280;53413;49.878;8.142;2023-03-21T08:07:05;100065.28;;;16.74;66.94
66560;BME280;53413;49.878;8.142;2023-03-21T08:09:30;100057.16;;;16.77;64.91
66560;BME280;53413;49.878;8.142;2023-03-21T08:11:56;100058.69;;;17.36;64.25
66560;BME280;53413;49.878;8.142;2023-03-21T08:14:21;100058.84;;;18.27;60.68
66560;BME280;53413;49.878;8.142;2023-03-21T08:16:47;100062.47;;;18.13;58.64
66560;BME280;53413;49.878;8.142;2023-03-21T08:19:12;100056.56;;;17.69;59.23
66560;BME280;53413;49.878;8.142;2023-03-21T08:21:37;100061.81;;;17.16;60.98
66560;BME280;53413;49.878;8.142;2023-03-21T08:24:04;100066.75;;;16.93;61.66
66560;BME280;53413;49.878;8.142;2023-03-21T08:26:29;100063.41;;;16.62;62.31
66560;BME280;53413;49.878;8.142;2023-03-21T08:28:56;100071.84;;;16.25;62.31
66560;BME280;53413;49.878;8.142;2023-03-21T08:31:21;100063.78;;;15.82;63.13
66560;BME280;53413;49.878;8.142;2023-03-21T08:33:46;100064.41;;;15.57;64.49
66560;BME280;53413;49.878;8.142;2023-03-21T08:36:15;100066.00;;;15.13;66.48
66560;BME280;53413;49.878;8.142;2023-03-21T08:38:40;100068.66;;;14.81;67.70
66560;BME280;53413;49.878;8.142;2023-03-21T08:41:06;100072.09;;;14.65;68.75
66560;BME280;53413;49.878;8.142;2023-03-21T08:43:31;100065.25;;;14.45;69.63
66560;BME280;53413;49.878;8.142;2023-03-21T08:45:56;100068.34;;;14.37;70.82
66560;BME280;53413;49.878;8.142;2023-03-21T08:48:22;100075.03;;;14.09;72.03
66560;BME280;53413;49.878;8.142;2023-03-21T08:50:48;100068.69;;;13.96;72.05
66560;BME280;53413;49.878;8.142;2023-03-21T08:53:13;100076.00;;;13.73;72.15
66560;BME280;53413;49.878;8.142;2023-03-21T08:55:38;100075.44;;;13.66;72.08
66560;BME280;53413;49.878;8.142;2023-03-21T08:58:04;100072.50;;;13.55;72.98
66560;BME280;53413;49.878;8.142;2023-03-21T09:00:30;100074.72;;;13.45;73.68
66560;BME280;53413;49.878;8.142;2023-03-21T09:02:55;100071.50;;;13.40;74.39
66560;BME280;53413;49.878;8.142;2023-03-21T09:05:23;100080.91;;;13.44;74.58
66560;BME280;53413;49.878;8.142;2023-03-21T09:07:51;100075.38;;;13.50;77.06
66560;BME280;53413;49.878;8.142;2023-03-21T09:10:19;100080.25;;;13.58;77.07
66560;BME280;53413;49.878;8.142;2023-03-21T09:12:47;100083.91;;;13.73;78.79
66560;BME280;53413;49.878;8.142;2023-03-21T09:15:13;100077.38;;;13.80;78.36
66560;BME280;53413;49.878;8.142;2023-03-21T09:17:39;100076.31;;;13.84;79.75
66560;BME280;53413;49.878;8.142;2023-03-21T09:20:10;100073.81;;;13.99;81.12
66560;BME280;53413;49.878;8.142;2023-03-21T09:22:37;100071.00;;;14.20;78.94
66560;BME280;53413;49.878;8.142;2023-03-21T09:25:03;100081.50;;;14.37;77.57
66560;BME280;53413;49.878;8.142;2023-03-21T09:27:36;100076.31;;;14.52;76.61
66560;BME280;53413;49.878;8.142;2023-03-21T09:30:02;100074.66;;;14.67;75.82
66560;BME280;53413;49.878;8.142;2023-03-21T09:32:30;100074.72;;;14.83;76.07
66560;BME280;53413;49.878;8.142;2023-03-21T09:34:55;100068.75;;;14.79;77.30
66560;BME280;53413;49.878;8.142;2023-03-21T09:37:21;100066.03;;;14.81;76.47
66560;BME280;53413;49.878;8.142;2023-03-21T09:39:47;100064.75;;;14.72;77.58
66560;BME280;53413;49.878;8.142;2023-03-21T09:45:01;100071.81;;;14.38;77.43
66560;BME280;53413;49.878;8.142;2023-03-21T09:47:38;100068.91;;;14.09;77.73
66560;BME280;53413;49.878;8.142;2023-03-21T09:50:19;100073.19;;;14.11;79.03
66560;BME280;53413;49.878;8.142;2023-03-21T09:55:28;100069.84;;;14.41;80.37
66560;BME280;53413;49.878;8.142;2023-03-21T10:00:38;100072.59;;;14.56;81.34
66560;BME280;53413;49.878;8.142;2023-03-21T10:03:20;100072.44;;;14.59;81.57
66560;BME280;53413;49.878;8.142;2023-03-21T10:05:51;100064.84;;;14.70;81.87
66560;BME280;53413;49.878;8.142;2023-03-21T10:08:24;100069.09;;;14.89;78.96
66560;BME280;53413;49.878;8.142;2023-03-21T10:10:54;100063.88;;;15.03;80.47
66560;BME280;53413;49.878;8.142;2023-03-21T10:13:32;100064.00;;;15.02;78.68
66560;BME280;53413;49.878;8.142;2023-03-21T10:16:11;100061.00;;;14.92;78.71
66560;BME280;53413;49.878;8.142;2023-03-21T10:18:40;100058.38;;;14.92;78.72
66560;BME280;53413;49.878;8.142;2023-03-21T10:21:07;100069.44;;;14.83;79.38
66560;BME280;53413;49.878;8.142;2023-03-21T10:23:38;100062.88;;;14.56;79.82
66560;BME280;53413;49.878;8.142;2023-03-21T10:26:05;100067.66;;;14.50;81.32
66560;BME280;53413;49.878;8.142;2023-03-21T10:28:36;100063.06;;;14.37;82.70
66560;BME280;53413;49.878;8.142;2023-03-21T10:31:07;100060.44;;;14.37;83.54
66560;BME280;53413;49.878;8.142;2023-03-21T10:33:38;100061.06;;;14.25;84.09
66560;BME280;53413;49.878;8.142;2023-03-21T10:36:26;100064.81;;;14.03;84.84
66560;BME280;53413;49.878;8.142;2023-03-21T10:41:21;100060.09;;;13.92;87.25
66560;BME280;53413;49.878;8.142;2023-03-21T10:44:06;100060.66;;;13.99;86.40
66560;BME280;53413;49.878;8.142;2023-03-21T10:46:32;100051.19;;;13.95;86.30
66560;BME280;53413;49.878;8.142;2023-03-21T10:48:58;100057.47;;;13.92;88.18
66560;BME280;53413;49.878;8.142;2023-03-21T10:51:32;100062.22;;;13.85;87.66
66560;BME280;53413;49.878;8.142;2023-03-21T10:54:04;100060.50;;;13.84;89.86
66560;BME280;53413;49.878;8.142;2023-03-21T10:56:36;100059.19;;;13.93;91.12
66560;BME280;53413;49.878;8.142;2023-03-21T10:59:04;100054.25;;;14.03;89.21
66560;BME280;53413;49.878;8.142;2023-03-21T11:01:40;100055.53;;;13.96;89.30
66560;BME280;53413;49.878;8.142;2023-03-21T11:04:13;100061.44;;;14.01;90.02
66560;BME280;53413;49.878;8.142;2023-03-21T11:06:42;100050.41;;;14.10;88.22
66560;BME280;53413;49.878;8.142;2023-03-21T11:09:12;100047.66;;;14.29;86.40
66560;BME280;53413;49.878;8.142;2023-03-21T11:11:53;100045.09;;;14.44;86.94
66560;BME280;53413;49.878;8.142;2023-03-21T11:14:45;100049.66;;;14.58;87.52
66560;BME280;53413;49.878;8.142;2023-03-21T11:19:56;100033.44;;;14.82;85.40
66560;BME280;53413;49.878;8.142;2023-03-21T11:22:25;100036.16;;;14.96;87.82
66560;BME280;53413;49.878;8.142;2023-03-21T11:24:53;100030.78;;;14.98;83.76
66560;BME280;53413;49.878;8.142;2023-03-21T11:27:21;100031.88;;;15.09;82.22
66560;BME280;53413;49.878;8.142;2023-03-21T11:29:49;100025.88;;;15.22;83.50
66560;BME280;53413;49.878;8.142;2023-03-21T11:35:01;100021.91;;;15.76;80.24
66560;BME280;53413;49.878;8.142;2023-03-21T11:37:45;100024.25;;;15.80;80.86
66560;BME280;53413;49.878;8.142;2023-03-21T11:40:34;100014.44;;;15.68;80.66
66560;BME280;53413;49.878;8.142;2023-03-21T11:47:55;100020.75;;;15.65;81.24
66560;BME280;53413;49.878;8.142;2023-03-21T11:50:37;100013.00;;;15.62;82.25
66560;BME280;53413;49.878;8.142;2023-03-21T12:01:26;99997.94;;;15.34;82.92
66560;BME280;53413;49.878;8.142;2023-03-21T12:06:40;99998.28;;;15.28;82.85
66560;BME280;53413;49.878;8.142;2023-03-21T12:18:05;99989.44;;;15.29;83.57
66560;BME280;53413;49.878;8.142;2023-03-21T12:20:46;99986.13;;;15.70;81.55
66560;BME280;53413;49.878;8.142;2023-03-21T12:28:42;99966.84;;;16.13;79.76
66560;BME280;53413;49.878;8.142;2023-03-21T12:31:29;99967.28;;;16.34;80.67
66560;BME280;53413;49.878;8.142;2023-03-21T12:39:35;99964.16;;;15.69;80.63
66560;BME280;53413;49.878;8.142;2023-03-21T12:45:17;99962.41;;;15.39;84.33
66560;BME280;53413;49.878;8.142;2023-03-21T12:47:50;99955.66;;;15.19;87.65
66560;BME280;53413;49.878;8.142;2023-03-21T12:52:53;99953.03;;;14.73;92.56
66560;BME280;53413;49.878;8.142;2023-03-21T12:55:31;99949.44;;;14.58;91.55
66560;BME280;53413;49.878;8.142;2023-03-21T12:58:03;99955.56;;;14.42;92.92
66560;BME280;53413;49.878;8.142;2023-03-21T13:00:33;99948.84;;;14.53;93.98
66560;BME280;53413;49.878;8.142;2023-03-21T13:03:04;99949.56;;;14.72;96.52
66560;BME280;53413;49.878;8.142;2023-03-21T13:10:37;99943.22;;;14.91;95.08
66560;BME280;53413;49.878;8.142;2023-03-21T13:13:21;99938.31;;;14.85;93.46
66560;BME280;53413;49.878;8.142;2023-03-21T13:20:55;99926.06;;;15.14;94.10
66560;BME280;53413;49.878;8.142;2023-03-21T13:23:23;99920.13;;;14.95;92.81
66560;BME280;53413;49.878;8.142;2023-03-21T13:25:51;99919.84;;;14.85;94.05
66560;BME280;53413;49.878;8.142;2023-03-21T13:28:24;99916.38;;;14.68;95.61
66560;BME280;53413;49.878;8.142;2023-03-21T13:30:50;99906.91;;;14.48;93.97
66560;BME280;53413;49.878;8.142;2023-03-21T13:33:22;99903.94;;;14.54;99.12
66560;BME280;53413;49.878;8.142;2023-03-21T13:35:59;99898.16;;;14.47;99.16
66560;BME280;53413;49.878;8.142;2023-03-21T13:38:31;99902.00;;;14.42;100.00
66560;BME280;53413;49.878;8.142;2023-03-21T13:41:11;99906.06;;;14.31;100.00
66560;BME280;53413;49.878;8.142;2023-03-21T13:51:51;99888.28;;;14.51;100.00
66560;BME280;53413;49.878;8.142;2023-03-21T13:57:18;99884.28;;;14.28;100.00
66560;BME280;53413;49.878;8.142;2023-03-21T14:02:22;99895.34;;;14.19;100.00
66560;BME280;53413;49.878;8.142;2023-03-21T14:04:53;99882.75;;;14.08;100.00
66560;BME280;53413;49.878;8.142;2023-03-21T14:07:29;99875.63;;;13.94;100.00
66560;BME280;53413;49.878;8.142;2023-03-21T14:09:59;99874.84;;;13.92;100.00
66560;BME280;53413;49.878;8.142;2023-03-21T14:12:29;99867.03;;;14.06;100.00
66560;BME280;53413;49.878;8.142;2023-03-21T14:15:19;99855.50;;;14.25;100.00
66560;BME280;53413;49.878;8.142;2023-03-21T14:17:54;99850.59;;;14.49;100.00
66560;BME280;53413;49.878;8.142;2023-03-21T14:20:40;99832.06;;;14.51;100.00
66560;BME280;53413;49.878;8.142;2023-03-21T14:23:09;99826.09;;;14.47;100.00
66560;BME280;53413;49.878;8.142;2023-03-21T14:25:38;99835.81;;;14.46;100.00
66560;BME280;53413;49.878;8.142;2023-03-21T14:28:08;99840.56;;;14.56;100.00
66560;BME280;53413;49.878;8.142;2023-03-21T14:30:40;99834.91;;;14.62;100.00
66560;BME280;53413;49.878;8.142;2023-03-21T14:33:32;99825.91;;;14.66;98.50
66560;BME280;53413;49.878;8.142;2023-03-21T14:36:08;99835.88;;;14.61;100.00
66560;BME280;53413;49.878;8.142;2023-03-21T14:38:36;99857.03;;;14.59;97.98
66560;BME280;53413;49.878;8.142;2023-03-21T14:41:03;99854.13;;;14.64;98.48
66560;BME280;53413;49.878;8.142;2023-03-21T14:43:28;99842.34;;;14.71;100.00
66560;BME280;53413;49.878;8.142;2023-03-21T14:45:58;99842.47;;;14.84;99.18
66560;BME280;53413;49.878;8.142;2023-03-21T14:48:31;99833.72;;;14.84;98.29
66560;BME280;53413;49.878;8.142;2023-03-21T14:51:00;99833.34;;;14.90;95.81
66560;BME280;53413;49.878;8.142;2023-03-21T14:53:34;99832.00;;;14.83;96.62
66560;BME280;53413;49.878;8.142;2023-03-21T14:56:16;99822.34;;;14.67;97.83
66560;BME280;53413;49.878;8.142;2023-03-21T14:58:45;99821.50;;;14.51;98.18
66560;BME280;53413;49.878;8.142;2023-03-21T15:01:27;99813.97;;;14.44;97.22